createdAt,value
2023-01-27T00:01:23.345Z,72.34
2023-01-27T00:03:54.466Z,73.44
2023-01-27T00:06:22.337Z,74.95
2023-01-27T00:08:52.031Z,74.48
2023-01-27T00:11:37.295Z,72.69
2023-01-27T00:14:05.148Z,73.52
2023-01-27T00:16:34.413Z,72.78
2023-01-27T00:19:05.208Z,73.08
2023-01-27T00:21:51.663Z,73.45
2023-01-27T00:24:41.454Z,73.57
2023-01-27T00:27:10.716Z,74.31
2023-01-27T00:29:38.733Z,72.38
2023-01-27T00:32:25.384Z,72.46
2023-01-27T00:34:53.113Z,72.47
2023-01-27T00:37:29.079Z,72.23
2023-01-27T00:39:56.955Z,72.06
2023-01-27T00:42:28.093Z,72.02
2023-01-27T00:45:13.269Z,72.16
2023-01-27T00:47:42.362Z,73.93
2023-01-27T00:50:13.019Z,73.96
2023-01-27T00:52:43.446Z,72.63
2023-01-27T00:55:11.987Z,71.23
2023-01-27T00:57:40.069Z,71.48
2023-01-27T01:00:11.840Z,71.22
2023-01-27T01:02:39.643Z,71.35
2023-01-27T01:05:09.695Z,71.43
2023-01-27T01:07:42.521Z,71.57
2023-01-27T01:10:12.042Z,71.58
2023-01-27T01:12:42.886Z,71.54
2023-01-27T01:15:13.080Z,71.09
2023-01-27T01:17:41.466Z,71.78
2023-01-27T01:20:14.272Z,71.29
2023-01-27T01:22:42.352Z,71.66
2023-01-27T01:25:10.724Z,71.07
2023-01-27T01:27:41.364Z,71.97
2023-01-27T01:30:10.834Z,71.10
2023-01-27T01:32:39.974Z,70.78
2023-01-27T01:35:08.503Z,69.77
2023-01-27T01:37:37.625Z,69.98
2023-01-27T01:40:12.661Z,70.69
2023-01-27T01:43:01.439Z,70.06
2023-01-27T01:45:46.565Z,70.45
2023-01-27T01:48:18.436Z,68.78
2023-01-27T01:50:49.804Z,69.47
2023-01-27T01:53:21.600Z,68.29
2023-01-27T01:55:51.498Z,68.32
2023-01-27T01:58:21.966Z,68.34
2023-01-27T02:00:53.741Z,69.06
2023-01-27T02:03:21.777Z,70.31
2023-01-27T02:05:50.057Z,70.59
2023-01-27T02:08:24.495Z,69.61
2023-01-27T02:10:55.885Z,68.11
2023-01-27T02:13:23.866Z,68.28
2023-01-27T02:15:56.264Z,67.63
2023-01-27T02:18:27.161Z,68.66
2023-01-27T02:20:55.984Z,68.03
2023-01-27T02:23:33.396Z,68.37
2023-01-27T02:26:08.949Z,68.39
2023-01-27T02:28:38.841Z,68.63
2023-01-27T02:31:06.989Z,69.37
2023-01-27T02:33:35.167Z,69.85
2023-01-27T02:36:07.944Z,68.96
2023-01-27T02:38:41.301Z,68.59
2023-01-27T02:41:17.674Z,68.93
2023-01-27T02:43:47.649Z,68.89
2023-01-27T02:46:18.210Z,69.43
2023-01-27T02:48:46.984Z,70.15
2023-01-27T02:51:17.885Z,70.64
2023-01-27T02:53:48.940Z,69.55
2023-01-27T02:56:19.778Z,68.20
2023-01-27T02:58:53.527Z,68.79
2023-01-27T03:01:25.173Z,69.39
2023-01-27T03:03:55.762Z,70.22
2023-01-27T03:06:23.719Z,70.35
2023-01-27T03:08:57.841Z,70.54
2023-01-27T03:11:44.660Z,70.78
2023-01-27T03:14:12.820Z,70.65
2023-01-27T03:16:59.387Z,71.15
2023-01-27T03:19:29.535Z,70.83
2023-01-27T03:21:57.301Z,71.31
2023-01-27T03:24:28.136Z,70.45
2023-01-27T03:26:58.851Z,70.07
2023-01-27T03:29:43.917Z,69.90
2023-01-27T03:32:11.730Z,70.11
2023-01-27T03:34:39.594Z,69.68
2023-01-27T03:37:25.082Z,69.15
2023-01-27T03:40:12.226Z,69.60
2023-01-27T03:43:00.922Z,69.01
2023-01-27T03:45:46.443Z,69.29
2023-01-27T03:48:14.613Z,68.81
2023-01-27T03:50:43.661Z,69.45
2023-01-27T03:53:12.301Z,70.18
2023-01-27T03:55:50.704Z,70.26
2023-01-27T03:58:25.696Z,70.91
2023-01-27T04:00:55.001Z,70.22
2023-01-27T04:03:44.608Z,70.82
2023-01-27T04:06:37.428Z,70.69
2023-01-27T04:09:05.947Z,70.36
2023-01-27T04:11:51.174Z,70.56
2023-01-27T04:14:24.062Z,70.59
2023-01-27T04:16:53.859Z,72.43
2023-01-27T04:19:22.037Z,70.89
2023-01-27T04:21:50.321Z,72.32
2023-01-27T04:24:26.155Z,70.80
2023-01-27T04:26:57.209Z,69.70
2023-01-27T04:29:29.907Z,70.21
2023-01-27T04:31:59.219Z,71.28
2023-01-27T04:34:27.697Z,71.15
2023-01-27T04:36:58.431Z,70.76
2023-01-27T04:39:29.554Z,70.88
2023-01-27T04:41:58.235Z,70.92
2023-01-27T04:44:27.835Z,70.64
2023-01-27T04:46:55.783Z,70.81
2023-01-27T04:49:23.651Z,70.84
2023-01-27T04:51:51.848Z,71.34
2023-01-27T04:54:26.067Z,70.26
2023-01-27T04:56:58.999Z,70.33
2023-01-27T04:59:31.643Z,70.88
2023-01-27T05:02:00.965Z,70.81
2023-01-27T05:04:33.107Z,71.00
2023-01-27T05:07:01.117Z,71.03
2023-01-27T05:09:32.423Z,70.81
2023-01-27T05:12:00.308Z,71.56
2023-01-27T05:14:29.609Z,71.09
2023-01-27T05:17:02.129Z,71.25
2023-01-27T05:19:32.673Z,71.44
2023-01-27T05:22:00.665Z,72.34
2023-01-27T05:24:31.232Z,73.67
2023-01-27T05:27:01.640Z,73.59
2023-01-27T05:29:30.900Z,72.65
2023-01-27T05:31:59.014Z,73.47
2023-01-27T05:34:27.419Z,73.64
2023-01-27T05:36:55.198Z,72.79
2023-01-27T05:39:30.283Z,72.32
2023-01-27T05:42:00.880Z,72.19
2023-01-27T05:44:30.457Z,73.42
2023-01-27T05:46:58.293Z,74.14
2023-01-27T05:49:29.028Z,73.94
2023-01-27T05:51:56.911Z,73.94
2023-01-27T05:54:24.863Z,75.31
2023-01-27T05:56:52.945Z,75.10
2023-01-27T05:59:21.678Z,75.28
2023-01-27T06:01:53.724Z,74.85
2023-01-27T06:04:26.635Z,74.17
2023-01-27T06:07:03.529Z,74.85
2023-01-27T06:09:31.491Z,73.47
2023-01-27T06:12:03.257Z,73.21
2023-01-27T06:14:40.453Z,72.72
2023-01-27T06:17:09.733Z,72.56
2023-01-27T06:19:41.526Z,71.60
2023-01-27T06:22:13.303Z,73.43
2023-01-27T06:24:49.741Z,71.11
2023-01-27T06:27:20.380Z,72.18
2023-01-27T06:29:48.615Z,72.93
2023-01-27T06:32:20.487Z,73.15
2023-01-27T06:34:52.008Z,72.92
2023-01-27T06:37:19.989Z,72.88
2023-01-27T06:39:48.058Z,72.78
2023-01-27T06:42:16.737Z,73.39
2023-01-27T06:44:47.018Z,73.39
2023-01-27T06:47:16.811Z,72.31
2023-01-27T06:49:46.642Z,72.74
2023-01-27T06:52:14.912Z,72.95
2023-01-27T06:54:43.005Z,73.45
2023-01-27T06:57:11.427Z,73.09
2023-01-27T06:59:40.820Z,73.48
2023-01-27T07:02:13.018Z,73.14
2023-01-27T07:04:41.104Z,72.34
2023-01-27T07:07:10.401Z,73.03
2023-01-27T07:09:51.719Z,71.79
2023-01-27T07:12:20.004Z,72.44
2023-01-27T07:14:49.530Z,72.84
2023-01-27T07:17:17.544Z,73.19
2023-01-27T07:19:45.487Z,73.90
2023-01-27T07:22:14.659Z,73.95
2023-01-27T07:24:42.644Z,73.79
2023-01-27T07:27:10.805Z,73.37
2023-01-27T07:29:41.064Z,74.01
2023-01-27T07:32:09.228Z,73.25
2023-01-27T07:34:37.210Z,73.01
2023-01-27T07:37:05.653Z,73.31
2023-01-27T07:39:39.625Z,73.18
2023-01-27T07:42:08.087Z,74.44
2023-01-27T07:44:38.237Z,73.99
2023-01-27T07:47:07.905Z,74.06
2023-01-27T07:49:36.125Z,73.38
2023-01-27T07:52:04.834Z,73.65
2023-01-27T07:54:34.355Z,73.42
2023-01-27T07:57:02.979Z,73.28
2023-01-27T07:59:31.161Z,72.96
2023-01-27T08:02:03.907Z,73.00
2023-01-27T08:04:40.218Z,73.43
2023-01-27T08:07:19.172Z,73.81
2023-01-27T08:09:56.307Z,74.20
2023-01-27T08:12:25.487Z,74.50
2023-01-27T08:14:56.866Z,75.38
2023-01-27T08:17:27.839Z,76.37
2023-01-27T08:20:00.999Z,76.51
2023-01-27T08:22:29.444Z,76.45
2023-01-27T08:25:04.051Z,76.56
2023-01-27T08:27:34.961Z,75.88
2023-01-27T08:30:02.961Z,76.49
2023-01-27T08:32:32.840Z,76.01
2023-01-27T08:35:01.273Z,75.50
2023-01-27T08:37:29.337Z,76.04
2023-01-27T08:39:59.164Z,76.72
2023-01-27T08:42:27.498Z,76.90
2023-01-27T08:44:55.463Z,77.00
2023-01-27T08:47:23.400Z,77.24
2023-01-27T08:49:51.613Z,76.66
2023-01-27T08:52:22.213Z,76.07
2023-01-27T08:54:50.286Z,76.08
2023-01-27T08:57:24.319Z,76.29
2023-01-27T08:59:52.340Z,75.88
2023-01-27T09:02:22.456Z,75.02
2023-01-27T09:04:51.593Z,75.33
2023-01-27T09:07:20.378Z,74.77
2023-01-27T09:10:07.720Z,75.15
2023-01-27T09:12:48.311Z,76.13
2023-01-27T09:15:21.442Z,75.44
2023-01-27T09:17:49.409Z,76.20
2023-01-27T09:20:20.855Z,76.61
2023-01-27T09:22:56.533Z,75.82
2023-01-27T09:25:24.974Z,76.75
2023-01-27T09:28:07.277Z,75.76
2023-01-27T09:30:40.759Z,75.48
2023-01-27T09:33:09.182Z,76.33
2023-01-27T09:35:43.408Z,75.86
2023-01-27T09:38:12.255Z,76.42
2023-01-27T09:40:50.789Z,77.03
2023-01-27T09:43:35.637Z,77.76
2023-01-27T09:46:28.511Z,77.02
2023-01-27T09:49:11.000Z,76.21
2023-01-27T09:51:47.061Z,76.41
2023-01-27T09:54:48.774Z,75.86
2023-01-27T09:57:24.160Z,75.89
2023-01-27T10:00:09.345Z,76.26
2023-01-27T10:02:55.884Z,75.08
2023-01-27T10:05:35.278Z,75.46
2023-01-27T10:08:25.044Z,74.33
2023-01-27T10:11:13.754Z,74.37
2023-01-27T10:13:53.187Z,76.20
2023-01-27T10:16:38.725Z,76.10
2023-01-27T10:19:22.574Z,75.98
2023-01-27T10:21:59.811Z,76.39
2023-01-27T10:24:39.577Z,74.77
2023-01-27T10:27:10.902Z,75.23
2023-01-27T10:29:42.712Z,75.19
2023-01-27T10:32:25.239Z,75.54
2023-01-27T10:35:00.224Z,75.33
2023-01-27T10:37:36.597Z,75.37
2023-01-27T10:40:16.718Z,74.11
2023-01-27T10:42:49.457Z,73.95
2023-01-27T10:45:24.292Z,74.85
2023-01-27T10:48:02.816Z,75.49
2023-01-27T10:50:38.500Z,74.64
2023-01-27T10:53:14.651Z,75.04
2023-01-27T10:55:49.549Z,74.78
2023-01-27T10:58:22.912Z,74.32
2023-01-27T11:01:19.794Z,74.92
2023-01-27T11:03:49.769Z,74.33
2023-01-27T11:06:21.806Z,74.26
2023-01-27T11:08:57.024Z,73.53
2023-01-27T11:11:45.256Z,72.26
2023-01-27T11:14:22.884Z,71.92
2023-01-27T11:16:53.301Z,72.13
2023-01-27T11:19:37.267Z,73.70
2023-01-27T11:22:09.183Z,72.67
2023-01-27T11:24:45.274Z,73.34
2023-01-27T11:27:21.444Z,73.19
2023-01-27T11:29:55.018Z,72.50
2023-01-27T11:32:33.286Z,73.37
2023-01-27T11:35:04.850Z,73.54
2023-01-27T11:37:34.171Z,73.62
2023-01-27T11:40:02.500Z,73.51
2023-01-27T11:42:34.149Z,73.24
2023-01-27T11:45:02.904Z,72.35
2023-01-27T11:47:35.519Z,72.24
2023-01-27T11:50:10.356Z,72.84
2023-01-27T11:52:40.259Z,72.00
2023-01-27T11:55:13.504Z,71.21
2023-01-27T11:57:44.833Z,69.90
2023-01-27T12:00:28.562Z,70.20
2023-01-27T12:03:02.807Z,70.25
2023-01-27T12:05:35.859Z,72.13
2023-01-27T12:08:06.256Z,73.75
2023-01-27T12:10:35.951Z,74.16
2023-01-27T12:13:10.478Z,73.72
2023-01-27T12:15:49.246Z,73.69
2023-01-27T12:18:17.427Z,74.25
2023-01-27T12:21:02.180Z,74.00
2023-01-27T12:23:34.936Z,72.53
2023-01-27T12:26:07.499Z,72.81
2023-01-27T12:28:38.674Z,73.00
2023-01-27T12:31:10.658Z,72.64
2023-01-27T12:33:41.677Z,73.18
2023-01-27T12:36:17.107Z,73.22
2023-01-27T12:38:53.192Z,73.13
2023-01-27T12:41:27.034Z,73.73
2023-01-27T12:44:02.103Z,74.03
2023-01-27T12:46:34.062Z,74.02
2023-01-27T12:49:16.897Z,73.54
2023-01-27T12:51:52.742Z,74.07
2023-01-27T12:54:25.059Z,73.81
2023-01-27T12:56:57.589Z,73.84
2023-01-27T12:59:30.300Z,73.66
2023-01-27T13:02:01.549Z,73.79
2023-01-27T13:04:30.804Z,73.54
2023-01-27T13:07:08.117Z,72.96
2023-01-27T13:09:38.910Z,72.23
2023-01-27T13:12:18.008Z,73.02
2023-01-27T13:14:48.205Z,73.07
2023-01-27T13:17:31.161Z,73.23
2023-01-27T13:20:04.347Z,74.11
2023-01-27T13:22:46.893Z,74.37
2023-01-27T13:25:33.859Z,74.11
2023-01-27T13:28:02.236Z,73.83
2023-01-27T13:30:34.253Z,74.77
2023-01-27T13:33:15.342Z,74.46
2023-01-27T13:35:50.209Z,73.52
2023-01-27T13:38:27.741Z,73.59
2023-01-27T13:41:02.878Z,72.56
2023-01-27T13:43:33.893Z,73.83
2023-01-27T13:46:17.333Z,73.84
2023-01-27T13:48:48.765Z,73.38
2023-01-27T13:51:19.494Z,73.39
2023-01-27T13:53:59.082Z,73.66
2023-01-27T13:56:39.600Z,74.12
2023-01-27T13:59:36.080Z,74.19
2023-01-27T14:02:45.082Z,75.22
2023-01-27T14:05:28.679Z,75.36
2023-01-27T14:08:02.978Z,75.22
2023-01-27T14:10:37.071Z,74.81
2023-01-27T14:13:17.283Z,75.17
2023-01-27T14:15:52.148Z,74.76
2023-01-27T14:18:23.808Z,74.65
2023-01-27T14:21:25.050Z,75.25
2023-01-27T14:24:14.106Z,74.67
2023-01-27T14:26:51.545Z,75.21
2023-01-27T14:29:35.771Z,75.33
2023-01-27T14:32:11.023Z,74.49
2023-01-27T14:34:57.162Z,74.25
2023-01-27T14:37:32.283Z,73.78
2023-01-27T14:40:15.407Z,73.12
2023-01-27T14:42:50.310Z,73.35
2023-01-27T14:45:22.428Z,72.91
2023-01-27T14:48:00.783Z,72.78
2023-01-27T14:50:36.554Z,73.86
2023-01-27T14:53:22.668Z,73.35
2023-01-27T14:56:01.030Z,72.88
2023-01-27T14:58:50.565Z,73.40
2023-01-27T15:01:28.526Z,74.17
2023-01-27T15:04:28.433Z,75.04
2023-01-27T15:06:58.862Z,74.29
2023-01-27T15:09:55.986Z,74.34
2023-01-27T15:12:49.485Z,73.75
2023-01-27T15:15:46.897Z,73.91
2023-01-27T15:18:29.436Z,73.32
2023-01-27T15:21:26.181Z,74.13
2023-01-27T15:24:19.780Z,74.48
2023-01-27T15:26:48.092Z,74.41
2023-01-27T15:29:16.510Z,75.08
2023-01-27T15:32:16.866Z,75.51
2023-01-27T15:34:48.091Z,76.40
2023-01-27T15:37:22.589Z,77.34
2023-01-27T15:40:03.963Z,77.64
2023-01-27T15:42:52.425Z,77.24
2023-01-27T15:45:28.854Z,76.13
2023-01-27T15:48:06.083Z,76.68
2023-01-27T15:50:39.412Z,76.07
2023-01-27T15:53:13.944Z,74.89
2023-01-27T15:55:52.524Z,75.39
2023-01-27T15:58:25.043Z,74.58
2023-01-27T16:00:56.768Z,74.33
2023-01-27T16:03:30.410Z,74.55
2023-01-27T16:06:09.416Z,74.34
2023-01-27T16:08:41.328Z,74.73
2023-01-27T16:11:25.335Z,75.40
2023-01-27T16:14:32.221Z,76.16
2023-01-27T16:17:05.125Z,76.12
2023-01-27T16:19:35.666Z,75.96
2023-01-27T16:22:12.498Z,76.18
2023-01-27T16:24:43.642Z,76.79
2023-01-27T16:27:25.656Z,76.19
2023-01-27T16:30:07.387Z,75.21
2023-01-27T16:32:38.548Z,74.57
2023-01-27T16:35:09.368Z,73.81
2023-01-27T16:37:39.619Z,72.85
2023-01-27T16:40:17.597Z,72.93
2023-01-27T16:42:50.200Z,72.20
2023-01-27T16:45:22.805Z,71.86
2023-01-27T16:47:53.971Z,71.73
2023-01-27T16:50:38.778Z,72.20
2023-01-27T16:53:08.824Z,72.81
2023-01-27T16:55:36.854Z,73.81
2023-01-27T16:58:21.435Z,73.17
2023-01-27T17:00:52.200Z,73.00
2023-01-27T17:03:25.503Z,72.94
2023-01-27T17:05:55.415Z,72.82
2023-01-27T17:08:37.179Z,72.77
2023-01-27T17:11:14.549Z,72.46
2023-01-27T17:13:45.845Z,71.96
2023-01-27T17:16:18.371Z,71.84
2023-01-27T17:18:52.649Z,71.21
2023-01-27T17:21:30.002Z,71.32
2023-01-27T17:24:03.015Z,71.75
2023-01-27T17:26:35.820Z,72.02
2023-01-27T17:29:07.505Z,72.21
2023-01-27T17:31:38.993Z,71.87
2023-01-27T17:34:06.932Z,71.38
2023-01-27T17:36:36.242Z,71.24
2023-01-27T17:39:26.179Z,70.92
2023-01-27T17:41:58.841Z,70.42
2023-01-27T17:44:26.936Z,70.54
2023-01-27T17:46:57.009Z,69.69
2023-01-27T17:49:24.788Z,69.82
2023-01-27T17:51:58.117Z,69.21
2023-01-27T17:54:30.057Z,69.15
2023-01-27T17:57:03.912Z,69.17
2023-01-27T17:59:32.130Z,68.85
2023-01-27T18:02:03.781Z,68.28
2023-01-27T18:04:35.940Z,68.79
2023-01-27T18:07:05.151Z,68.42
2023-01-27T18:09:33.065Z,69.21
2023-01-27T18:12:02.537Z,67.82
2023-01-27T18:14:33.892Z,69.73
2023-01-27T18:17:05.741Z,68.48
2023-01-27T18:19:34.282Z,66.80
2023-01-27T18:22:16.418Z,67.74
2023-01-27T18:24:52.260Z,67.58
2023-01-27T18:27:23.131Z,67.96
2023-01-27T18:29:53.969Z,67.96
2023-01-27T18:32:28.203Z,68.28
2023-01-27T18:34:58.212Z,68.11
2023-01-27T18:37:34.817Z,67.65
2023-01-27T18:40:28.037Z,67.99
2023-01-27T18:42:59.371Z,68.08
2023-01-27T18:45:28.331Z,68.35
2023-01-27T18:47:59.689Z,67.99
2023-01-27T18:50:31.898Z,67.94
2023-01-27T18:53:04.155Z,67.47
2023-01-27T18:55:40.580Z,67.02
2023-01-27T18:58:11.868Z,67.46
2023-01-27T19:00:44.151Z,67.89
2023-01-27T19:03:18.019Z,68.82
2023-01-27T19:05:47.138Z,69.57
2023-01-27T19:08:21.877Z,68.81
2023-01-27T19:10:55.518Z,68.97
2023-01-27T19:13:23.627Z,67.88
2023-01-27T19:15:52.776Z,67.54
2023-01-27T19:18:26.050Z,67.27
2023-01-27T19:20:54.177Z,66.49
2023-01-27T19:23:26.720Z,67.35
2023-01-27T19:25:56.692Z,66.59
2023-01-27T19:28:29.820Z,69.81
2023-01-27T19:30:57.705Z,68.55
2023-01-27T19:33:27.588Z,69.11
2023-01-27T19:35:59.906Z,68.93
2023-01-27T19:38:31.182Z,68.95
2023-01-27T19:41:01.559Z,68.58
2023-01-27T19:43:29.389Z,68.22
2023-01-27T19:45:57.330Z,67.70
2023-01-27T19:48:31.086Z,68.73
2023-01-27T19:51:01.613Z,70.67
2023-01-27T19:53:33.956Z,68.67
2023-01-27T19:56:03.176Z,69.36
2023-01-27T19:58:32.267Z,69.30
2023-01-27T20:01:00.262Z,68.94
2023-01-27T20:03:28.427Z,69.08
2023-01-27T20:05:56.246Z,69.37
2023-01-27T20:08:25.249Z,69.39
2023-01-27T20:11:00.579Z,70.21
2023-01-27T20:13:51.049Z,69.62
2023-01-27T20:16:22.953Z,69.43
2023-01-27T20:18:51.056Z,69.47
2023-01-27T20:21:29.471Z,69.56
2023-01-27T20:23:57.302Z,70.21
2023-01-27T20:26:32.473Z,70.43
2023-01-27T20:29:01.839Z,70.35
2023-01-27T20:31:30.113Z,69.63
2023-01-27T20:33:58.102Z,69.94
2023-01-27T20:36:26.758Z,69.57
2023-01-27T20:38:54.557Z,69.58
2023-01-27T20:41:30.900Z,69.43
2023-01-27T20:44:01.347Z,69.26
2023-01-27T20:46:30.675Z,70.06
2023-01-27T20:49:05.782Z,69.83
2023-01-27T20:51:33.860Z,69.74
2023-01-27T20:54:05.702Z,70.10
2023-01-27T20:56:36.008Z,70.48
2023-01-27T20:59:07.981Z,69.92
2023-01-27T21:01:41.099Z,69.77
2023-01-27T21:04:08.953Z,70.52
2023-01-27T21:06:36.846Z,70.77
2023-01-27T21:09:05.794Z,70.45
2023-01-27T21:11:34.086Z,71.54
2023-01-27T21:14:07.889Z,71.31
2023-01-27T21:16:35.937Z,71.86
2023-01-27T21:19:04.158Z,72.14
2023-01-27T21:21:40.405Z,72.38
2023-01-27T21:24:08.665Z,72.58
2023-01-27T21:26:42.167Z,73.61
2023-01-27T21:29:12.405Z,74.27
2023-01-27T21:31:41.785Z,74.87
2023-01-27T21:34:12.104Z,74.65
2023-01-27T21:36:40.316Z,74.77
2023-01-27T21:39:11.427Z,73.98
2023-01-27T21:41:59.001Z,74.77
2023-01-27T21:44:47.289Z,74.30
2023-01-27T21:47:18.551Z,74.24
2023-01-27T21:50:02.893Z,74.08
2023-01-27T21:52:42.713Z,74.05
2023-01-27T21:55:12.552Z,74.27
2023-01-27T21:57:41.157Z,74.58
2023-01-27T22:00:13.548Z,74.89
2023-01-27T22:02:47.102Z,74.41
2023-01-27T22:05:15.311Z,75.07
2023-01-27T22:07:47.610Z,75.43
2023-01-27T22:10:19.384Z,76.07
2023-01-27T22:12:54.884Z,76.71
2023-01-27T22:15:28.613Z,76.62
2023-01-27T22:18:05.921Z,76.11
2023-01-27T22:20:34.503Z,76.98
2023-01-27T22:23:02.405Z,76.71
2023-01-27T22:25:30.167Z,76.31
2023-01-27T22:27:59.203Z,76.06
2023-01-27T22:30:36.172Z,75.72
2023-01-27T22:33:07.168Z,76.57
2023-01-27T22:35:41.121Z,76.48
2023-01-27T22:38:11.465Z,77.20
2023-01-27T22:40:49.811Z,77.08
2023-01-27T22:43:17.601Z,77.15
2023-01-27T22:45:53.130Z,77.57
2023-01-27T22:48:21.332Z,77.15
2023-01-27T22:50:53.267Z,76.86
2023-01-27T22:53:22.193Z,76.29
2023-01-27T22:55:57.697Z,76.49
2023-01-27T22:58:28.935Z,75.86
2023-01-27T23:00:58.623Z,75.11
2023-01-27T23:03:27.031Z,75.77
2023-01-27T23:06:05.001Z,75.64
2023-01-27T23:08:32.902Z,76.17
2023-01-27T23:11:02.567Z,76.52
2023-01-27T23:13:31.220Z,76.55
2023-01-27T23:16:04.492Z,76.39
2023-01-27T23:18:32.790Z,76.86
2023-01-27T23:21:04.117Z,76.93
2023-01-27T23:23:37.319Z,76.73
2023-01-27T23:26:07.444Z,78.78
2023-01-27T23:28:36.032Z,77.13
2023-01-27T23:31:15.790Z,76.97
2023-01-27T23:33:48.085Z,75.68
2023-01-27T23:36:17.753Z,75.77
2023-01-27T23:39:03.363Z,75.84
2023-01-27T23:41:33.226Z,75.38
2023-01-27T23:44:02.938Z,75.91
2023-01-27T23:46:38.031Z,75.97
2023-01-27T23:49:06.009Z,76.28
2023-01-27T23:51:37.601Z,75.92
2023-01-27T23:54:09.913Z,75.47
2023-01-27T23:56:43.086Z,75.53
2023-01-27T23:59:13.802Z,74.75
